sensor_id;sensor_type;location;lat;lon;timestamp;temperature;humidity
11067;DHT22;29763;50.904;5.530;2022-09-02T00:01:54;17.50;99.90
11067;DHT22;29763;50.904;5.530;2022-09-02T00:04:22;17.40;99.90
11067;DHT22;29763;50.904;5.530;2022-09-02T00:06:50;17.40;99.90
11067;DHT22;29763;50.904;5.530;2022-09-02T00:09:19;17.50;99.90
11067;DHT22;29763;50.904;5.530;2022-09-02T00:11:49;17.50;99.90
11067;DHT22;29763;50.904;5.530;2022-09-02T00:14:21;17.50;99.90
11067;DHT22;29763;50.904;5.530;2022-09-02T00:16:47;17.60;99.90
11067;DHT22;29763;50.904;5.530;2022-09-02T00:19:22;17.50;99.90
11067;DHT22;29763;50.904;5.530;2022-09-02T00:21:50;17.60;99.90
11067;DHT22;29763;50.904;5.530;2022-09-02T00:24:16;17.50;99.90
11067;DHT22;29763;50.904;5.530;2022-09-02T00:26:46;17.50;99.90
11067;DHT22;29763;50.904;5.530;2022-09-02T00:29:12;17.60;99.90
11067;DHT22;29763;50.904;5.530;2022-09-02T00:31:41;17.60;99.90
11067;DHT22;29763;50.904;5.530;2022-09-02T00:34:08;17.60;99.90
11067;DHT22;29763;50.904;5.530;2022-09-02T00:36:34;17.60;99.90
11067;DHT22;29763;50.904;5.530;2022-09-02T00:39:00;17.70;99.90
11067;DHT22;29763;50.904;5.530;2022-09-02T00:41:28;17.70;99.90
11067;DHT22;29763;50.904;5.530;2022-09-02T00:43:56;17.80;99.90
11067;DHT22;29763;50.904;5.530;2022-09-02T00:46:25;17.80;99.90
11067;DHT22;29763;50.904;5.530;2022-09-02T00:51:48;17.90;99.90
11067;DHT22;29763;50.904;5.530;2022-09-02T00:54:16;17.90;99.90
11067;DHT22;29763;50.904;5.530;2022-09-02T00:56:45;17.90;99.90
11067;DHT22;29763;50.904;5.530;2022-09-02T00:59:19;18.00;99.90
11067;DHT22;29763;50.904;5.530;2022-09-02T01:01:47;17.90;99.90
11067;DHT22;29763;50.904;5.530;2022-09-02T01:04:14;17.90;99.90
11067;DHT22;29763;50.904;5.530;2022-09-02T01:06:43;17.90;99.90
11067;DHT22;29763;50.904;5.530;2022-09-02T01:09:13;17.90;99.90
11067;DHT22;29763;50.904;5.530;2022-09-02T01:11:46;17.90;99.90
11067;DHT22;29763;50.904;5.530;2022-09-02T01:14:15;17.90;99.90
11067;DHT22;29763;50.904;5.530;2022-09-02T01:16:44;17.90;99.90
11067;DHT22;29763;50.904;5.530;2022-09-02T01:19:34;17.90;99.90
11067;DHT22;29763;50.904;5.530;2022-09-02T01:22:01;17.90;99.90
11067;DHT22;29763;50.904;5.530;2022-09-02T01:24:31;17.90;99.90
11067;DHT22;29763;50.904;5.530;2022-09-02T01:27:01;17.90;99.90
11067;DHT22;29763;50.904;5.530;2022-09-02T01:29:28;18.00;99.90
11067;DHT22;29763;50.904;5.530;2022-09-02T01:31:54;18.00;99.90
11067;DHT22;29763;50.904;5.530;2022-09-02T01:34:20;18.00;99.90
11067;DHT22;29763;50.904;5.530;2022-09-02T01:36:45;18.00;99.90
11067;DHT22;29763;50.904;5.530;2022-09-02T01:39:12;18.00;99.90
11067;DHT22;29763;50.904;5.530;2022-09-02T01:41:38;18.00;99.90
11067;DHT22;29763;50.904;5.530;2022-09-02T01:44:04;18.00;99.90
11067;DHT22;29763;50.904;5.530;2022-09-02T01:46:31;18.00;99.90
11067;DHT22;29763;50.904;5.530;2022-09-02T01:48:57;18.00;99.90
11067;DHT22;29763;50.904;5.530;2022-09-02T01:51:23;18.00;99.90
11067;DHT22;29763;50.904;5.530;2022-09-02T01:53:49;18.00;99.90
11067;DHT22;29763;50.904;5.530;2022-09-02T01:56:15;18.00;99.90
11067;DHT22;29763;50.904;5.530;2022-09-02T01:58:41;18.00;99.90
11067;DHT22;29763;50.904;5.530;2022-09-02T02:01:07;18.00;99.90
11067;DHT22;29763;50.904;5.530;2022-09-02T02:03:34;18.00;99.90
11067;DHT22;29763;50.904;5.530;2022-09-02T02:06:04;18.00;99.90
11067;DHT22;29763;50.904;5.530;2022-09-02T02:08:32;18.00;99.90
11067;DHT22;29763;50.904;5.530;2022-09-02T02:10:57;18.00;99.90
11067;DHT22;29763;50.904;5.530;2022-09-02T02:13:25;18.10;99.90
11067;DHT22;29763;50.904;5.530;2022-09-02T02:15:51;18.10;99.90
11067;DHT22;29763;50.904;5.530;2022-09-02T02:18:20;18.10;99.90
11067;DHT22;29763;50.904;5.530;2022-09-02T02:20:46;18.10;99.90
11067;DHT22;29763;50.904;5.530;2022-09-02T02:23:12;18.10;99.90
11067;DHT22;29763;50.904;5.530;2022-09-02T02:25:38;18.10;99.90
11067;DHT22;29763;50.904;5.530;2022-09-02T02:28:04;18.10;99.90
11067;DHT22;29763;50.904;5.530;2022-09-02T02:30:35;18.10;99.90
11067;DHT22;29763;50.904;5.530;2022-09-02T02:33:04;18.10;99.90
11067;DHT22;29763;50.904;5.530;2022-09-02T02:35:32;18.10;99.90
11067;DHT22;29763;50.904;5.530;2022-09-02T02:37:58;18.10;99.90
11067;DHT22;29763;50.904;5.530;2022-09-02T02:40:24;18.10;99.90
11067;DHT22;29763;50.904;5.530;2022-09-02T02:42:52;18.10;99.90
11067;DHT22;29763;50.904;5.530;2022-09-02T02:45:21;18.10;99.90
11067;DHT22;29763;50.904;5.530;2022-09-02T02:47:48;18.00;99.90
11067;DHT22;29763;50.904;5.530;2022-09-02T02:50:17;18.00;99.90
11067;DHT22;29763;50.904;5.530;2022-09-02T02:52:43;18.00;99.90
11067;DHT22;29763;50.904;5.530;2022-09-02T02:55:11;18.00;99.90
11067;DHT22;29763;50.904;5.530;2022-09-02T02:57:40;18.00;99.90
11067;DHT22;29763;50.904;5.530;2022-09-02T03:02:38;18.00;99.90
11067;DHT22;29763;50.904;5.530;2022-09-02T03:05:08;18.00;99.90
11067;DHT22;29763;50.904;5.530;2022-09-02T03:07:34;18.00;99.90
11067;DHT22;29763;50.904;5.530;2022-09-02T03:10:00;18.00;99.90
11067;DHT22;29763;50.904;5.530;2022-09-02T03:12:28;18.10;99.90
11067;DHT22;29763;50.904;5.530;2022-09-02T03:14:56;18.10;99.90
11067;DHT22;29763;50.904;5.530;2022-09-02T03:17:22;18.00;99.90
11067;DHT22;29763;50.904;5.530;2022-09-02T03:19:48;18.00;99.90
11067;DHT22;29763;50.904;5.530;2022-09-02T03:22:17;18.10;99.90
11067;DHT22;29763;50.904;5.530;2022-09-02T03:24:43;18.00;99.90
11067;DHT22;29763;50.904;5.530;2022-09-02T03:27:11;18.10;99.90
11067;DHT22;29763;50.904;5.530;2022-09-02T03:29:36;18.00;99.90
11067;DHT22;29763;50.904;5.530;2022-09-02T03:32:02;18.10;99.90
11067;DHT22;29763;50.904;5.530;2022-09-02T03:34:31;18.10;99.90
11067;DHT22;29763;50.904;5.530;2022-09-02T03:36:57;18.10;99.90
11067;DHT22;29763;50.904;5.530;2022-09-02T03:39:23;18.10;99.90
11067;DHT22;29763;50.904;5.530;2022-09-02T03:41:49;18.10;99.90
11067;DHT22;29763;50.904;5.530;2022-09-02T03:44:15;18.10;99.90
11067;DHT22;29763;50.904;5.530;2022-09-02T03:46:41;18.10;99.90
11067;DHT22;29763;50.904;5.530;2022-09-02T03:49:07;18.10;99.90
11067;DHT22;29763;50.904;5.530;2022-09-02T03:51:33;18.10;99.90
11067;DHT22;29763;50.904;5.530;2022-09-02T03:54:01;18.10;99.90
11067;DHT22;29763;50.904;5.530;2022-09-02T03:56:28;18.10;99.90
11067;DHT22;29763;50.904;5.530;2022-09-02T03:58:54;18.00;99.90
11067;DHT22;29763;50.904;5.530;2022-09-02T04:01:22;18.10;99.90
11067;DHT22;29763;50.904;5.530;2022-09-02T04:03:51;18.00;99.90
11067;DHT22;29763;50.904;5.530;2022-09-02T04:06:20;18.00;99.90
11067;DHT22;29763;50.904;5.530;2022-09-02T04:08:47;18.00;99.90
11067;DHT22;29763;50.904;5.530;2022-09-02T04:11:17;18.00;99.90
11067;DHT22;29763;50.904;5.530;2022-09-02T04:13:44;18.00;99.90
11067;DHT22;29763;50.904;5.530;2022-09-02T04:16:17;18.00;99.90
11067;DHT22;29763;50.904;5.530;2022-09-02T04:18:45;18.00;99.90
11067;DHT22;29763;50.904;5.530;2022-09-02T04:21:12;18.00;99.90
11067;DHT22;29763;50.904;5.530;2022-09-02T04:23:38;18.00;99.90
11067;DHT22;29763;50.904;5.530;2022-09-02T04:26:10;18.00;99.90
11067;DHT22;29763;50.904;5.530;2022-09-02T04:28:36;18.00;99.90
11067;DHT22;29763;50.904;5.530;2022-09-02T04:31:11;18.00;99.90
11067;DHT22;29763;50.904;5.530;2022-09-02T04:33:37;18.00;99.90
11067;DHT22;29763;50.904;5.530;2022-09-02T04:36:08;18.00;99.90
11067;DHT22;29763;50.904;5.530;2022-09-02T04:38:35;17.90;99.90
11067;DHT22;29763;50.904;5.530;2022-09-02T04:41:08;17.90;99.90
11067;DHT22;29763;50.904;5.530;2022-09-02T04:43:35;17.90;99.90
11067;DHT22;29763;50.904;5.530;2022-09-02T04:46:04;17.90;99.90
11067;DHT22;29763;50.904;5.530;2022-09-02T04:48:31;17.80;99.90
11067;DHT22;29763;50.904;5.530;2022-09-02T04:50:57;17.80;99.90
11067;DHT22;29763;50.904;5.530;2022-09-02T04:53:27;17.80;99.90
11067;DHT22;29763;50.904;5.530;2022-09-02T04:55:53;17.80;99.90
11067;DHT22;29763;50.904;5.530;2022-09-02T04:58:19;17.80;99.90
11067;DHT22;29763;50.904;5.530;2022-09-02T05:00:53;17.70;99.90
11067;DHT22;29763;50.904;5.530;2022-09-02T05:03:19;17.80;99.90
11067;DHT22;29763;50.904;5.530;2022-09-02T05:05:45;17.80;99.90
11067;DHT22;29763;50.904;5.530;2022-09-02T05:08:12;17.80;99.90
11067;DHT22;29763;50.904;5.530;2022-09-02T05:10:39;17.80;99.90
11067;DHT22;29763;50.904;5.530;2022-09-02T05:13:05;17.80;99.90
11067;DHT22;29763;50.904;5.530;2022-09-02T05:15:31;17.80;99.90
11067;DHT22;29763;50.904;5.530;2022-09-02T05:17:57;17.80;99.90
11067;DHT22;29763;50.904;5.530;2022-09-02T05:20:23;17.80;99.90
11067;DHT22;29763;50.904;5.530;2022-09-02T05:22:50;17.80;99.90
11067;DHT22;29763;50.904;5.530;2022-09-02T05:25:16;17.80;99.90
11067;DHT22;29763;50.904;5.530;2022-09-02T05:27:43;17.80;99.90
11067;DHT22;29763;50.904;5.530;2022-09-02T05:30:09;17.80;99.90
11067;DHT22;29763;50.904;5.530;2022-09-02T05:32:35;17.90;99.90
11067;DHT22;29763;50.904;5.530;2022-09-02T05:35:00;17.90;99.90
11067;DHT22;29763;50.904;5.530;2022-09-02T05:37:27;17.90;99.90
11067;DHT22;29763;50.904;5.530;2022-09-02T05:39:52;17.90;99.90
11067;DHT22;29763;50.904;5.530;2022-09-02T05:42:18;17.90;99.90
11067;DHT22;29763;50.904;5.530;2022-09-02T05:44:45;17.90;99.90
11067;DHT22;29763;50.904;5.530;2022-09-02T05:47:14;17.90;99.90
11067;DHT22;29763;50.904;5.530;2022-09-02T05:49:40;17.90;99.90
11067;DHT22;29763;50.904;5.530;2022-09-02T05:52:06;18.00;99.90
11067;DHT22;29763;50.904;5.530;2022-09-02T05:54:36;18.00;99.90
11067;DHT22;29763;50.904;5.530;2022-09-02T05:57:06;18.00;99.90
11067;DHT22;29763;50.904;5.530;2022-09-02T05:59:34;18.10;99.90
11067;DHT22;29763;50.904;5.530;2022-09-02T06:02:09;18.10;99.90
11067;DHT22;29763;50.904;5.530;2022-09-02T06:04:44;18.20;99.90
11067;DHT22;29763;50.904;5.530;2022-09-02T06:07:15;18.30;99.90
11067;DHT22;29763;50.904;5.530;2022-09-02T06:09:41;18.30;99.90
11067;DHT22;29763;50.904;5.530;2022-09-02T06:12:10;18.40;99.90
11067;DHT22;29763;50.904;5.530;2022-09-02T06:14:36;18.40;99.90
11067;DHT22;29763;50.904;5.530;2022-09-02T06:17:03;18.50;99.90
11067;DHT22;29763;50.904;5.530;2022-09-02T06:19:29;18.50;99.90
11067;DHT22;29763;50.904;5.530;2022-09-02T06:21:58;18.50;99.90
11067;DHT22;29763;50.904;5.530;2022-09-02T06:24:25;18.50;99.90
11067;DHT22;29763;50.904;5.530;2022-09-02T06:27:01;18.60;99.90
11067;DHT22;29763;50.904;5.530;2022-09-02T06:29:27;18.60;99.90
11067;DHT22;29763;50.904;5.530;2022-09-02T06:31:53;18.60;99.90
11067;DHT22;29763;50.904;5.530;2022-09-02T06:34:21;18.60;99.90
11067;DHT22;29763;50.904;5.530;2022-09-02T06:36:48;18.70;99.90
11067;DHT22;29763;50.904;5.530;2022-09-02T06:39:17;18.70;99.90
11067;DHT22;29763;50.904;5.530;2022-09-02T06:41:44;18.80;99.90
11067;DHT22;29763;50.904;5.530;2022-09-02T06:44:14;18.90;99.90
11067;DHT22;29763;50.904;5.530;2022-09-02T06:46:48;18.90;99.90
11067;DHT22;29763;50.904;5.530;2022-09-02T06:49:17;19.00;99.90
11067;DHT22;29763;50.904;5.530;2022-09-02T06:51:47;19.00;99.90
11067;DHT22;29763;50.904;5.530;2022-09-02T06:54:16;19.10;99.90
11067;DHT22;29763;50.904;5.530;2022-09-02T06:56:43;19.10;99.90
11067;DHT22;29763;50.904;5.530;2022-09-02T06:59:09;19.20;99.90
11067;DHT22;29763;50.904;5.530;2022-09-02T07:01:36;19.30;99.90
11067;DHT22;29763;50.904;5.530;2022-09-02T07:04:06;19.30;99.90
11067;DHT22;29763;50.904;5.530;2022-09-02T07:06:53;19.40;99.90
11067;DHT22;29763;50.904;5.530;2022-09-02T07:09:21;19.50;99.90
11067;DHT22;29763;50.904;5.530;2022-09-02T07:11:50;19.70;99.90
11067;DHT22;29763;50.904;5.530;2022-09-02T07:14:19;19.80;99.90
11067;DHT22;29763;50.904;5.530;2022-09-02T07:16:48;19.90;99.90
11067;DHT22;29763;50.904;5.530;2022-09-02T07:19:15;20.00;99.90
11067;DHT22;29763;50.904;5.530;2022-09-02T07:21:41;20.20;99.90
11067;DHT22;29763;50.904;5.530;2022-09-02T07:24:09;20.30;99.90
11067;DHT22;29763;50.904;5.530;2022-09-02T07:26:36;20.40;99.90
11067;DHT22;29763;50.904;5.530;2022-09-02T07:29:02;20.50;99.90
11067;DHT22;29763;50.904;5.530;2022-09-02T07:31:28;20.50;99.90
11067;DHT22;29763;50.904;5.530;2022-09-02T07:33:56;20.60;99.90
11067;DHT22;29763;50.904;5.530;2022-09-02T07:36:26;20.80;99.90
11067;DHT22;29763;50.904;5.530;2022-09-02T07:38:53;20.80;99.90
11067;DHT22;29763;50.904;5.530;2022-09-02T07:41:22;20.80;99.90
11067;DHT22;29763;50.904;5.530;2022-09-02T07:43:49;21.10;99.90
11067;DHT22;29763;50.904;5.530;2022-09-02T07:46:16;21.30;99.90
11067;DHT22;29763;50.904;5.530;2022-09-02T07:48:42;21.50;99.90
11067;DHT22;29763;50.904;5.530;2022-09-02T07:51:08;21.70;99.90
11067;DHT22;29763;50.904;5.530;2022-09-02T07:53:34;22.20;99.90
11067;DHT22;29763;50.904;5.530;2022-09-02T07:56:00;22.60;99.90
11067;DHT22;29763;50.904;5.530;2022-09-02T07:58:26;23.20;99.90
11067;DHT22;29763;50.904;5.530;2022-09-02T08:00:53;23.80;99.90
11067;DHT22;29763;50.904;5.530;2022-09-02T08:03:22;24.10;99.90
11067;DHT22;29763;50.904;5.530;2022-09-02T08:05:54;24.30;99.90
11067;DHT22;29763;50.904;5.530;2022-09-02T08:08:22;23.90;99.90
11067;DHT22;29763;50.904;5.530;2022-09-02T08:10:51;23.90;99.90
11067;DHT22;29763;50.904;5.530;2022-09-02T08:13:17;24.20;99.90
11067;DHT22;29763;50.904;5.530;2022-09-02T08:15:44;24.20;99.90
11067;DHT22;29763;50.904;5.530;2022-09-02T08:18:14;24.40;99.90
11067;DHT22;29763;50.904;5.530;2022-09-02T08:20:39;24.60;99.90
11067;DHT22;29763;50.904;5.530;2022-09-02T08:23:06;24.60;99.90
11067;DHT22;29763;50.904;5.530;2022-09-02T08:25:36;24.80;99.90
11067;DHT22;29763;50.904;5.530;2022-09-02T08:28:02;25.10;99.90
11067;DHT22;29763;50.904;5.530;2022-09-02T08:30:28;25.00;99.90
11067;DHT22;29763;50.904;5.530;2022-09-02T08:32:54;25.10;99.90
11067;DHT22;29763;50.904;5.530;2022-09-02T08:35:20;25.50;99.90
11067;DHT22;29763;50.904;5.530;2022-09-02T08:37:46;25.50;99.90
11067;DHT22;29763;50.904;5.530;2022-09-02T08:40:21;25.70;99.90
11067;DHT22;29763;50.904;5.530;2022-09-02T08:42:56;26.00;99.90
11067;DHT22;29763;50.904;5.530;2022-09-02T08:45:35;26.50;99.90
11067;DHT22;29763;50.904;5.530;2022-09-02T08:48:24;27.20;98.80
11067;DHT22;29763;50.904;5.530;2022-09-02T08:51:01;27.50;98.50
11067;DHT22;29763;50.904;5.530;2022-09-02T08:53:47;27.50;98.00
11067;DHT22;29763;50.904;5.530;2022-09-02T08:56:16;27.20;97.20
11067;DHT22;29763;50.904;5.530;2022-09-02T08:58:45;26.90;97.50
11067;DHT22;29763;50.904;5.530;2022-09-02T09:07:31;25.40;99.40
11067;DHT22;29763;50.904;5.530;2022-09-02T09:12:56;25.10;99.90
11067;DHT22;29763;50.904;5.530;2022-09-02T09:18:32;25.80;99.60
11067;DHT22;29763;50.904;5.530;2022-09-02T09:21:01;25.90;99.00
11067;DHT22;29763;50.904;5.530;2022-09-02T09:23:32;26.00;98.80
11067;DHT22;29763;50.904;5.530;2022-09-02T09:26:17;26.30;98.80
11067;DHT22;29763;50.904;5.530;2022-09-02T09:28:45;26.70;98.40
11067;DHT22;29763;50.904;5.530;2022-09-02T09:31:23;26.90;97.80
11067;DHT22;29763;50.904;5.530;2022-09-02T09:34:12;27.00;96.20
11067;DHT22;29763;50.904;5.530;2022-09-02T09:36:42;27.30;96.40
11067;DHT22;29763;50.904;5.530;2022-09-02T09:42:01;28.00;95.30
11067;DHT22;29763;50.904;5.530;2022-09-02T09:44:40;28.00;92.70
11067;DHT22;29763;50.904;5.530;2022-09-02T09:49:37;27.80;92.10
11067;DHT22;29763;50.904;5.530;2022-09-02T09:52:03;27.70;92.40
11067;DHT22;29763;50.904;5.530;2022-09-02T09:54:29;27.80;91.40
11067;DHT22;29763;50.904;5.530;2022-09-02T09:57:13;28.10;91.10
11067;DHT22;29763;50.904;5.530;2022-09-02T09:59:45;28.30;89.60
11067;DHT22;29763;50.904;5.530;2022-09-02T10:02:24;28.70;86.80
11067;DHT22;29763;50.904;5.530;2022-09-02T10:05:09;29.30;84.90
11067;DHT22;29763;50.904;5.530;2022-09-02T10:07:41;29.50;79.20
11067;DHT22;29763;50.904;5.530;2022-09-02T10:10:20;30.10;78.60
11067;DHT22;29763;50.904;5.530;2022-09-02T10:12:48;30.60;75.20
11067;DHT22;29763;50.904;5.530;2022-09-02T10:15:16;30.90;74.10
11067;DHT22;29763;50.904;5.530;2022-09-02T10:20:53;30.70;72.70
11067;DHT22;29763;50.904;5.530;2022-09-02T10:35:27;29.70;70.40
11067;DHT22;29763;50.904;5.530;2022-09-02T10:40:19;30.00;69.50
11067;DHT22;29763;50.904;5.530;2022-09-02T10:43:08;29.80;68.10
11067;DHT22;29763;50.904;5.530;2022-09-02T10:45:49;30.00;67.70
11067;DHT22;29763;50.904;5.530;2022-09-02T10:48:35;30.20;68.00
11067;DHT22;29763;50.904;5.530;2022-09-02T10:56:40;29.40;67.40
11067;DHT22;29763;50.904;5.530;2022-09-02T10:59:15;29.30;68.80
11067;DHT22;29763;50.904;5.530;2022-09-02T11:01:59;29.30;68.50
11067;DHT22;29763;50.904;5.530;2022-09-02T11:04:46;29.60;67.00
11067;DHT22;29763;50.904;5.530;2022-09-02T11:07:20;29.50;68.20
11067;DHT22;29763;50.904;5.530;2022-09-02T11:09:52;29.00;69.90
11067;DHT22;29763;50.904;5.530;2022-09-02T11:12:30;29.10;70.20
11067;DHT22;29763;50.904;5.530;2022-09-02T11:15:05;29.20;69.90
11067;DHT22;29763;50.904;5.530;2022-09-02T11:28:58;28.60;71.00
11067;DHT22;29763;50.904;5.530;2022-09-02T11:31:37;28.40;72.00
11067;DHT22;29763;50.904;5.530;2022-09-02T11:34:16;27.80;73.30
11067;DHT22;29763;50.904;5.530;2022-09-02T11:36:44;27.80;74.80
11067;DHT22;29763;50.904;5.530;2022-09-02T11:42:06;27.50;75.80
11067;DHT22;29763;50.904;5.530;2022-09-02T11:44:59;28.00;75.20
11067;DHT22;29763;50.904;5.530;2022-09-02T11:53:39;27.60;73.40
11067;DHT22;29763;50.904;5.530;2022-09-02T11:56:20;27.30;73.90
11067;DHT22;29763;50.904;5.530;2022-09-02T11:58:50;27.40;74.40
11067;DHT22;29763;50.904;5.530;2022-09-02T12:01:53;27.40;75.30
11067;DHT22;29763;50.904;5.530;2022-09-02T12:04:20;28.10;75.30
11067;DHT22;29763;50.904;5.530;2022-09-02T12:09:51;29.90;73.00
11067;DHT22;29763;50.904;5.530;2022-09-02T12:15:13;29.40;69.20
11067;DHT22;29763;50.904;5.530;2022-09-02T12:23:07;31.20;67.90
11067;DHT22;29763;50.904;5.530;2022-09-02T12:25:47;32.00;66.20
11067;DHT22;29763;50.904;5.530;2022-09-02T12:28:23;32.20;64.70
11067;DHT22;29763;50.904;5.530;2022-09-02T12:33:34;32.80;63.40
11067;DHT22;29763;50.904;5.530;2022-09-02T12:36:00;32.00;61.60
11067;DHT22;29763;50.904;5.530;2022-09-02T12:38:38;32.10;63.10
11067;DHT22;29763;50.904;5.530;2022-09-02T12:51:58;30.10;63.60
11067;DHT22;29763;50.904;5.530;2022-09-02T12:57:21;29.60;63.00
11067;DHT22;29763;50.904;5.530;2022-09-02T13:00:02;29.70;62.20
11067;DHT22;29763;50.904;5.530;2022-09-02T13:02:36;30.00;65.50
11067;DHT22;29763;50.904;5.530;2022-09-02T13:05:42;30.70;64.00
11067;DHT22;29763;50.904;5.530;2022-09-02T13:11:33;30.90;61.00
11067;DHT22;29763;50.904;5.530;2022-09-02T13:31:22;31.50;61.20
11067;DHT22;29763;50.904;5.530;2022-09-02T13:34:01;30.80;60.60
11067;DHT22;29763;50.904;5.530;2022-09-02T13:36:44;30.50;60.50
11067;DHT22;29763;50.904;5.530;2022-09-02T13:39:23;30.30;60.70
11067;DHT22;29763;50.904;5.530;2022-09-02T13:41:49;30.50;59.80
11067;DHT22;29763;50.904;5.530;2022-09-02T13:44:26;29.40;61.30
11067;DHT22;29763;50.904;5.530;2022-09-02T13:47:16;28.60;64.10
11067;DHT22;29763;50.904;5.530;2022-09-02T13:49:52;28.30;65.60
11067;DHT22;29763;50.904;5.530;2022-09-02T13:52:21;28.50;65.20
11067;DHT22;29763;50.904;5.530;2022-09-02T13:54:56;28.70;63.60
11067;DHT22;29763;50.904;5.530;2022-09-02T13:57:25;28.80;64.60
11067;DHT22;29763;50.904;5.530;2022-09-02T13:59:54;29.70;65.90
11067;DHT22;29763;50.904;5.530;2022-09-02T14:07:41;30.70;61.50
11067;DHT22;29763;50.904;5.530;2022-09-02T14:10:11;30.50;60.40
11067;DHT22;29763;50.904;5.530;2022-09-02T14:12:38;30.40;60.60
11067;DHT22;29763;50.904;5.530;2022-09-02T14:15:11;30.70;62.10
11067;DHT22;29763;50.904;5.530;2022-09-02T14:17:37;31.20;61.30
11067;DHT22;29763;50.904;5.530;2022-09-02T14:20:18;31.50;61.20
11067;DHT22;29763;50.904;5.530;2022-09-02T14:22:54;31.70;59.90
11067;DHT22;29763;50.904;5.530;2022-09-02T14:25:21;31.20;59.60
11067;DHT22;29763;50.904;5.530;2022-09-02T14:27:54;31.10;59.60
11067;DHT22;29763;50.904;5.530;2022-09-02T14:30:40;30.60;59.90
11067;DHT22;29763;50.904;5.530;2022-09-02T14:33:25;29.90;60.00
11067;DHT22;29763;50.904;5.530;2022-09-02T14:36:00;29.70;61.00
11067;DHT22;29763;50.904;5.530;2022-09-02T14:38:47;29.70;61.50
11067;DHT22;29763;50.904;5.530;2022-09-02T14:46:26;29.50;62.10
11067;DHT22;29763;50.904;5.530;2022-09-02T14:49:08;29.50;60.00
11067;DHT22;29763;50.904;5.530;2022-09-02T14:54:10;30.00;60.80
11067;DHT22;29763;50.904;5.530;2022-09-02T14:56:51;30.40;61.20
11067;DHT22;29763;50.904;5.530;2022-09-02T14:59:18;30.40;61.60
11067;DHT22;29763;50.904;5.530;2022-09-02T15:01:47;30.70;59.60
11067;DHT22;29763;50.904;5.530;2022-09-02T15:04:15;30.60;59.10
11067;DHT22;29763;50.904;5.530;2022-09-02T15:06:41;30.60;61.80
11067;DHT22;29763;50.904;5.530;2022-09-02T15:09:07;30.20;60.20
11067;DHT22;29763;50.904;5.530;2022-09-02T15:11:37;30.10;59.90
11067;DHT22;29763;50.904;5.530;2022-09-02T15:14:07;30.10;61.00
11067;DHT22;29763;50.904;5.530;2022-09-02T15:16:32;30.10;60.40
11067;DHT22;29763;50.904;5.530;2022-09-02T15:18:58;30.20;61.10
11067;DHT22;29763;50.904;5.530;2022-09-02T15:21:24;30.20;59.80
11067;DHT22;29763;50.904;5.530;2022-09-02T15:23:52;30.00;60.90
11067;DHT22;29763;50.904;5.530;2022-09-02T15:26:18;29.80;61.40
11067;DHT22;29763;50.904;5.530;2022-09-02T15:28:44;29.90;60.00
11067;DHT22;29763;50.904;5.530;2022-09-02T15:31:10;30.00;59.40
11067;DHT22;29763;50.904;5.530;2022-09-02T15:33:37;29.90;61.10
11067;DHT22;29763;50.904;5.530;2022-09-02T15:36:11;29.80;60.70
11067;DHT22;29763;50.904;5.530;2022-09-02T15:38:38;29.90;60.80
11067;DHT22;29763;50.904;5.530;2022-09-02T15:41:22;29.90;59.00
11067;DHT22;29763;50.904;5.530;2022-09-02T15:43:49;30.00;59.00
11067;DHT22;29763;50.904;5.530;2022-09-02T15:46:30;29.80;60.60
11067;DHT22;29763;50.904;5.530;2022-09-02T15:49:04;29.80;60.80
11067;DHT22;29763;50.904;5.530;2022-09-02T15:51:31;29.90;61.80
11067;DHT22;29763;50.904;5.530;2022-09-02T15:53:59;30.00;60.90
11067;DHT22;29763;50.904;5.530;2022-09-02T15:56:27;29.70;61.40
11067;DHT22;29763;50.904;5.530;2022-09-02T15:59:15;29.40;60.70
11067;DHT22;29763;50.904;5.530;2022-09-02T16:01:44;29.10;61.20
11067;DHT22;29763;50.904;5.530;2022-09-02T16:04:18;29.00;61.10
11067;DHT22;29763;50.904;5.530;2022-09-02T16:06:46;29.20;62.10
11067;DHT22;29763;50.904;5.530;2022-09-02T16:09:15;29.30;61.50
11067;DHT22;29763;50.904;5.530;2022-09-02T16:11:44;29.30;60.90
11067;DHT22;29763;50.904;5.530;2022-09-02T16:14:11;29.00;61.50
11067;DHT22;29763;50.904;5.530;2022-09-02T16:16:37;28.80;61.50
11067;DHT22;29763;50.904;5.530;2022-09-02T16:19:05;28.50;61.70
11067;DHT22;29763;50.904;5.530;2022-09-02T16:21:34;28.40;61.30
11067;DHT22;29763;50.904;5.530;2022-09-02T16:24:04;28.40;61.90
11067;DHT22;29763;50.904;5.530;2022-09-02T16:26:32;28.50;61.40
11067;DHT22;29763;50.904;5.530;2022-09-02T16:29:04;28.10;60.80
11067;DHT22;29763;50.904;5.530;2022-09-02T16:31:31;27.90;61.20
11067;DHT22;29763;50.904;5.530;2022-09-02T16:34:06;27.70;61.60
11067;DHT22;29763;50.904;5.530;2022-09-02T16:36:35;27.80;61.40
11067;DHT22;29763;50.904;5.530;2022-09-02T16:39:02;27.70;61.80
11067;DHT22;29763;50.904;5.530;2022-09-02T16:41:34;27.80;62.30
11067;DHT22;29763;50.904;5.530;2022-09-02T16:44:03;27.90;62.00
11067;DHT22;29763;50.904;5.530;2022-09-02T16:46:30;27.70;61.70
11067;DHT22;29763;50.904;5.530;2022-09-02T16:48:59;27.60;62.10
11067;DHT22;29763;50.904;5.530;2022-09-02T16:51:26;27.60;62.10
11067;DHT22;29763;50.904;5.530;2022-09-02T16:54:00;27.40;61.40
11067;DHT22;29763;50.904;5.530;2022-09-02T16:56:39;27.30;61.80
11067;DHT22;29763;50.904;5.530;2022-09-02T16:59:07;27.30;62.20
11067;DHT22;29763;50.904;5.530;2022-09-02T17:01:34;27.10;62.90
11067;DHT22;29763;50.904;5.530;2022-09-02T17:04:00;27.10;62.50
11067;DHT22;29763;50.904;5.530;2022-09-02T17:06:29;26.90;62.90
11067;DHT22;29763;50.904;5.530;2022-09-02T17:08:58;26.80;63.60
11067;DHT22;29763;50.904;5.530;2022-09-02T17:11:27;26.60;63.20
11067;DHT22;29763;50.904;5.530;2022-09-02T17:14:01;26.40;63.20
11067;DHT22;29763;50.904;5.530;2022-09-02T17:16:30;26.30;63.20
11067;DHT22;29763;50.904;5.530;2022-09-02T17:19:00;26.20;63.10
11067;DHT22;29763;50.904;5.530;2022-09-02T17:21:51;25.90;63.40
11067;DHT22;29763;50.904;5.530;2022-09-02T17:24:22;25.90;64.00
11067;DHT22;29763;50.904;5.530;2022-09-02T17:26:50;25.70;64.40
11067;DHT22;29763;50.904;5.530;2022-09-02T17:29:19;25.70;64.60
11067;DHT22;29763;50.904;5.530;2022-09-02T17:31:45;25.80;64.50
11067;DHT22;29763;50.904;5.530;2022-09-02T17:34:12;25.90;64.50
11067;DHT22;29763;50.904;5.530;2022-09-02T17:36:40;25.80;64.20
11067;DHT22;29763;50.904;5.530;2022-09-02T17:39:08;25.60;64.40
11067;DHT22;29763;50.904;5.530;2022-09-02T17:41:37;25.40;64.50
11067;DHT22;29763;50.904;5.530;2022-09-02T17:44:33;25.20;65.10
11067;DHT22;29763;50.904;5.530;2022-09-02T17:47:17;25.00;65.30
11067;DHT22;29763;50.904;5.530;2022-09-02T17:49:44;24.90;65.60
11067;DHT22;29763;50.904;5.530;2022-09-02T17:52:15;24.80;66.10
11067;DHT22;29763;50.904;5.530;2022-09-02T17:54:45;24.70;66.70
11067;DHT22;29763;50.904;5.530;2022-09-02T17:57:45;24.60;66.80